createdAt,value
2018-12-02T00:00:29.489Z,18.27
2018-12-02T00:02:58.468Z,18.77
2018-12-02T00:05:27.165Z,22.53
2018-12-02T00:07:55.616Z,20.23
2018-12-02T00:10:24.335Z,21.53
2018-12-02T00:12:53.038Z,21.13
2018-12-02T00:15:22.913Z,19.50
2018-12-02T00:17:51.933Z,23.30
2018-12-02T00:20:20.711Z,24.40
2018-12-02T00:22:50.517Z,25.33
2018-12-02T00:25:17.734Z,20.67
2018-12-02T00:27:48.744Z,24.13
2018-12-02T00:30:18.764Z,29.07
2018-12-02T00:32:47.215Z,25.97
2018-12-02T00:35:16.018Z,28.40
2018-12-02T00:37:45.736Z,25.37
2018-12-02T00:40:14.548Z,25.77
2018-12-02T00:42:44.532Z,25.90
2018-12-02T00:45:13.620Z,24.17
2018-12-02T00:47:42.076Z,28.37
2018-12-02T00:50:12.969Z,30.00
2018-12-02T00:52:41.792Z,26.23
2018-12-02T00:55:12.768Z,26.87
2018-12-02T00:57:41.471Z,25.40
2018-12-02T01:00:14.395Z,27.40
2018-12-02T01:02:43.981Z,28.67
2018-12-02T01:05:15.557Z,27.00
2018-12-02T01:07:44.117Z,27.57
2018-12-02T01:10:13.929Z,31.73
2018-12-02T01:12:42.395Z,27.07
2018-12-02T01:15:11.360Z,27.63
2018-12-02T01:17:39.815Z,29.67
2018-12-02T01:20:09.156Z,29.30
2018-12-02T01:22:37.620Z,32.77
2018-12-02T01:25:07.596Z,25.77
2018-12-02T01:27:36.208Z,21.37
2018-12-02T01:30:20.514Z,29.53
2018-12-02T01:32:49.180Z,22.53
2018-12-02T01:35:17.880Z,24.20
2018-12-02T01:37:46.356Z,27.03
2018-12-02T01:40:15.263Z,25.77
2018-12-02T01:42:43.721Z,27.80
2018-12-02T01:45:12.780Z,23.57
2018-12-02T01:47:41.254Z,21.77
2018-12-02T01:50:12.973Z,21.43
2018-12-02T01:52:42.074Z,25.53
2018-12-02T01:55:10.617Z,26.93
2018-12-02T01:57:39.070Z,24.83
2018-12-02T02:00:10.645Z,25.93
2018-12-02T02:02:39.109Z,24.00
2018-12-02T02:05:07.590Z,19.47
2018-12-02T02:07:36.068Z,22.30
2018-12-02T02:10:08.243Z,21.20
2018-12-02T02:12:36.743Z,25.47
2018-12-02T02:15:06.972Z,19.45
2018-12-02T02:17:35.536Z,24.63
2018-12-02T02:20:04.799Z,18.47
2018-12-02T02:22:33.272Z,28.37
2018-12-02T02:25:01.735Z,24.60
2018-12-02T02:27:30.199Z,23.60
2018-12-02T02:29:58.675Z,21.43
2018-12-02T02:32:27.377Z,25.00
2018-12-02T02:34:55.932Z,25.20
2018-12-02T02:37:24.658Z,23.00
2018-12-02T02:39:53.465Z,21.70
2018-12-02T02:42:22.004Z,25.13
2018-12-02T02:44:50.491Z,20.43
2018-12-02T02:47:18.947Z,21.20
2018-12-02T02:49:47.396Z,21.57
2018-12-02T02:52:15.864Z,19.73
2018-12-02T02:54:44.576Z,19.43
2018-12-02T02:57:13.136Z,24.83
2018-12-02T02:59:41.622Z,21.20
2018-12-02T03:02:10.174Z,20.67
2018-12-02T03:04:38.638Z,19.17
2018-12-02T03:07:07.117Z,19.57
2018-12-02T03:09:35.572Z,20.27
2018-12-02T03:12:04.048Z,19.57
2018-12-02T03:14:32.513Z,23.13
2018-12-02T03:17:01.212Z,20.63
2018-12-02T03:19:29.818Z,20.53
2018-12-02T03:21:58.513Z,20.77
2018-12-02T03:24:27.293Z,21.07
2018-12-02T03:26:55.863Z,20.70
2018-12-02T03:29:24.568Z,19.43
2018-12-02T03:31:53.270Z,20.20
2018-12-02T03:34:21.718Z,20.07
2018-12-02T03:36:50.220Z,19.53
2018-12-02T03:39:18.681Z,20.20
2018-12-02T03:41:47.128Z,18.67
2018-12-02T03:44:15.601Z,17.60
2018-12-02T03:46:44.052Z,22.67
2018-12-02T03:49:12.500Z,20.10
2018-12-02T03:51:40.975Z,21.40
2018-12-02T03:54:09.429Z,18.97
2018-12-02T03:56:37.880Z,15.43
2018-12-02T03:59:06.366Z,14.80
2018-12-02T04:01:35.058Z,18.13
2018-12-02T04:04:03.600Z,18.53
2018-12-02T04:06:32.060Z,17.47
2018-12-02T04:09:00.504Z,12.73
2018-12-02T04:11:28.960Z,15.77
2018-12-02T04:13:57.668Z,18.53
2018-12-02T04:16:26.201Z,14.20
2018-12-02T04:18:54.885Z,18.97
2018-12-02T04:21:23.685Z,14.93
2018-12-02T04:23:52.225Z,15.53
2018-12-02T04:26:20.668Z,17.60
2018-12-02T04:28:49.148Z,15.17
2018-12-02T04:31:17.609Z,18.03
2018-12-02T04:33:46.068Z,13.63
2018-12-02T04:36:14.523Z,12.50
2018-12-02T04:38:42.972Z,12.90
2018-12-02T04:41:11.473Z,11.30
2018-12-02T04:43:39.888Z,11.03
2018-12-02T04:46:08.345Z,14.83
2018-12-02T04:48:36.787Z,12.53
2018-12-02T04:51:05.810Z,10.87
2018-12-02T04:53:34.340Z,13.40
2018-12-02T04:56:02.796Z,14.80
2018-12-02T04:58:31.502Z,13.63
2018-12-02T05:01:00.136Z,14.13
2018-12-02T05:03:28.837Z,14.93
2018-12-02T05:05:57.379Z,10.03
2018-12-02T05:08:25.829Z,12.90
2018-12-02T05:10:54.291Z,10.63
2018-12-02T05:13:22.741Z,15.03
2018-12-02T05:15:51.238Z,11.03
2018-12-02T05:18:19.644Z,8.53
2018-12-02T05:20:48.206Z,9.20
2018-12-02T05:23:16.675Z,13.07
2018-12-02T05:25:45.121Z,7.93
2018-12-02T05:28:13.590Z,10.67
2018-12-02T05:30:42.044Z,11.07
2018-12-02T05:33:10.489Z,7.53
2018-12-02T05:35:38.959Z,10.00
2018-12-02T05:38:07.652Z,7.13
2018-12-02T05:40:36.188Z,7.40
2018-12-02T05:43:04.735Z,7.23
2018-12-02T05:45:33.184Z,7.90
2018-12-02T05:48:01.878Z,10.90
2018-12-02T05:50:30.434Z,8.63
2018-12-02T05:52:59.596Z,7.70
2018-12-02T05:55:28.673Z,9.13
2018-12-02T05:57:57.392Z,12.67
2018-12-02T06:00:25.923Z,10.13
2018-12-02T06:02:54.429Z,7.23
2018-12-02T06:05:22.884Z,9.27
2018-12-02T06:07:51.574Z,7.77
2018-12-02T06:10:20.585Z,12.67
2018-12-02T06:12:49.052Z,9.13
2018-12-02T06:15:17.874Z,11.27
2018-12-02T06:17:46.359Z,8.13
2018-12-02T06:20:16.894Z,11.73
2018-12-02T06:22:45.467Z,8.43
2018-12-02T06:25:13.902Z,8.60
2018-12-02T06:27:42.359Z,10.00
2018-12-02T06:30:16.897Z,8.63
2018-12-02T06:32:45.798Z,9.57
2018-12-02T06:35:14.881Z,8.77
2018-12-02T06:37:43.459Z,6.23
2018-12-02T06:40:12.641Z,8.43
2018-12-02T06:42:41.194Z,9.90
2018-12-02T06:45:10.092Z,6.93
2018-12-02T06:47:38.608Z,9.30
2018-12-02T06:50:10.592Z,5.80
2018-12-02T06:52:39.049Z,7.43
2018-12-02T06:55:11.736Z,10.23
2018-12-02T06:57:41.683Z,9.73
2018-12-02T07:00:21.353Z,6.80
2018-12-02T07:02:54.912Z,7.63
2018-12-02T07:05:26.100Z,8.73
2018-12-02T07:07:54.549Z,9.13
2018-12-02T07:10:23.021Z,7.83
2018-12-02T07:12:51.492Z,8.23
2018-12-02T07:15:19.949Z,5.63
2018-12-02T07:17:49.724Z,7.80
2018-12-02T07:20:22.078Z,7.63
2018-12-02T07:22:52.756Z,8.93
2018-12-02T07:25:23.096Z,7.63
2018-12-02T07:27:51.551Z,6.70
2018-12-02T07:30:24.905Z,8.40
2018-12-02T07:32:48.515Z,6.93
2018-12-02T07:35:16.972Z,7.90
2018-12-02T07:37:51.961Z,10.37
2018-12-02T07:40:21.397Z,7.57
2018-12-02T07:42:50.082Z,7.43
2018-12-02T07:45:18.540Z,12.50
2018-12-02T07:47:47.242Z,12.37
2018-12-02T07:50:15.802Z,10.53
2018-12-02T07:52:44.277Z,8.87
2018-12-02T07:55:12.984Z,11.00
2018-12-02T07:57:41.766Z,10.77
2018-12-02T08:00:11.075Z,9.63
2018-12-02T08:02:39.685Z,14.13
2018-12-02T08:05:08.808Z,11.93
2018-12-02T08:07:37.276Z,9.83
2018-12-02T08:10:14.221Z,9.73
2018-12-02T08:12:42.781Z,10.77
2018-12-02T08:15:12.612Z,10.40
2018-12-02T08:17:41.074Z,10.07
2018-12-02T08:20:11.743Z,12.27
2018-12-02T08:22:40.377Z,9.93
2018-12-02T08:25:09.493Z,9.07
2018-12-02T08:27:37.976Z,10.80
2018-12-02T08:30:11.904Z,9.50
2018-12-02T08:32:40.610Z,8.53
2018-12-02T08:35:09.586Z,11.03
2018-12-02T08:37:38.236Z,10.13
2018-12-02T08:40:09.097Z,8.80
2018-12-02T08:42:37.637Z,12.83
2018-12-02T08:45:07.444Z,14.27
2018-12-02T08:47:35.922Z,11.13
2018-12-02T08:50:06.892Z,12.30
2018-12-02T08:52:35.342Z,8.47
2018-12-02T08:55:03.920Z,13.47
2018-12-02T08:57:32.371Z,13.47
2018-12-02T09:00:00.825Z,12.40
2018-12-02T09:02:29.527Z,12.33
2018-12-02T09:04:58.065Z,10.93
2018-12-02T09:07:26.767Z,11.80
2018-12-02T09:09:59.615Z,14.87
2018-12-02T09:12:24.095Z,11.73
2018-12-02T09:14:52.797Z,8.73
2018-12-02T09:17:21.609Z,10.10
2018-12-02T09:19:50.128Z,11.33
2018-12-02T09:22:18.590Z,10.57
2018-12-02T09:24:47.040Z,11.80
2018-12-02T09:27:15.736Z,8.97
2018-12-02T09:29:44.275Z,10.07
2018-12-02T09:32:12.744Z,9.13
2018-12-02T09:34:41.194Z,12.63
2018-12-02T09:37:09.645Z,11.40
2018-12-02T09:39:38.123Z,10.30
2018-12-02T09:42:06.609Z,11.40
2018-12-02T09:44:35.056Z,12.53
2018-12-02T09:47:03.524Z,10.10
2018-12-02T09:49:31.978Z,13.30
2018-12-02T09:52:00.674Z,12.00
2018-12-02T09:54:29.460Z,11.93
2018-12-02T09:56:57.992Z,11.90
2018-12-02T09:59:26.705Z,10.57
2018-12-02T10:01:55.321Z,12.23
2018-12-02T10:04:24.282Z,11.90
2018-12-02T10:06:52.982Z,10.37
2018-12-02T10:09:21.785Z,11.07
2018-12-02T10:11:50.324Z,11.07
2018-12-02T10:14:19.020Z,9.47
2018-12-02T10:16:47.588Z,10.03
2018-12-02T10:19:16.050Z,9.83
2018-12-02T10:21:44.499Z,11.47
2018-12-02T10:24:13.209Z,10.80
2018-12-02T10:26:41.736Z,8.73
2018-12-02T10:29:10.184Z,12.40
2018-12-02T10:31:38.649Z,9.37
2018-12-02T10:34:07.095Z,12.17
2018-12-02T10:36:35.800Z,10.70
2018-12-02T10:39:06.143Z,12.33
2018-12-02T10:41:34.897Z,14.23
2018-12-02T10:44:03.705Z,11.30
2018-12-02T10:46:32.477Z,13.10
2018-12-02T10:49:00.951Z,10.73
2018-12-02T10:51:29.400Z,11.70
2018-12-02T10:53:57.859Z,11.43
2018-12-02T10:56:26.332Z,12.60
2018-12-02T10:58:54.784Z,12.20
2018-12-02T11:01:28.787Z,11.07
2018-12-02T11:03:57.233Z,13.13
2018-12-02T11:06:25.754Z,14.10
2018-12-02T11:08:54.236Z,12.13
2018-12-02T11:11:23.041Z,15.60
2018-12-02T11:13:51.612Z,15.17
2018-12-02T11:16:20.088Z,12.37
2018-12-02T11:18:48.793Z,10.60
2018-12-02T11:23:52.482Z,11.30
2018-12-02T11:26:20.945Z,10.97
2018-12-02T11:28:49.652Z,12.83
2018-12-02T11:31:18.286Z,16.00
2018-12-02T11:33:46.740Z,13.13
2018-12-02T11:36:15.453Z,10.60
2018-12-02T11:38:44.028Z,11.07
2018-12-02T11:41:17.832Z,10.37
2018-12-02T11:43:46.460Z,12.43
2018-12-02T11:46:14.940Z,10.20
2018-12-02T11:48:43.656Z,10.13
2018-12-02T11:51:12.259Z,10.23
2018-12-02T11:53:40.744Z,10.33
2018-12-02T11:56:09.461Z,9.20
2018-12-02T11:58:38.038Z,10.77
2018-12-02T12:01:06.509Z,12.13
2018-12-02T12:03:35.228Z,13.13
2018-12-02T12:06:03.825Z,11.67
2018-12-02T12:08:32.288Z,9.97
2018-12-02T12:11:01.283Z,11.50
2018-12-02T12:13:30.000Z,10.53
2018-12-02T12:15:58.820Z,10.40
2018-12-02T12:18:27.379Z,13.37
2018-12-02T12:20:56.123Z,11.57
2018-12-02T12:23:24.751Z,10.67
2018-12-02T12:25:53.540Z,8.77
2018-12-02T12:28:22.318Z,10.10
2018-12-02T12:30:51.024Z,9.87
2018-12-02T12:33:19.572Z,13.70
2018-12-02T12:35:48.751Z,10.87
2018-12-02T12:38:17.472Z,10.03
2018-12-02T12:40:46.821Z,9.00
2018-12-02T12:43:22.281Z,9.87
2018-12-02T12:45:50.736Z,14.13
2018-12-02T12:48:19.453Z,11.00
2018-12-02T12:50:48.435Z,8.73
2018-12-02T12:53:17.165Z,6.13
2018-12-02T12:55:50.794Z,7.37
2018-12-02T12:58:15.187Z,8.93
2018-12-02T13:00:43.608Z,7.70
2018-12-02T13:03:12.471Z,8.37
2018-12-02T13:05:41.181Z,7.17
2018-12-02T13:08:10.360Z,6.80
2018-12-02T13:10:39.056Z,7.07
2018-12-02T13:13:07.854Z,6.17
2018-12-02T13:15:36.422Z,7.63
2018-12-02T13:18:06.014Z,8.30
2018-12-02T13:20:37.377Z,7.83
2018-12-02T13:23:06.901Z,7.17
2018-12-02T13:25:35.713Z,7.03
2018-12-02T13:28:04.704Z,6.70
2018-12-02T13:30:33.164Z,5.87
2018-12-02T13:33:01.919Z,6.73
2018-12-02T13:35:30.508Z,7.23
2018-12-02T13:37:59.203Z,6.37
2018-12-02T13:40:27.985Z,6.17
2018-12-02T13:42:58.104Z,6.60
2018-12-02T13:45:27.203Z,6.17
2018-12-02T13:47:55.673Z,6.83
2018-12-02T13:50:24.175Z,6.13
2018-12-02T13:52:54.012Z,6.57
2018-12-02T13:55:24.137Z,6.50
2018-12-02T13:57:53.033Z,8.23
2018-12-02T14:00:22.183Z,6.10
2018-12-02T14:02:51.331Z,6.37
2018-12-02T14:05:19.796Z,7.20
2018-12-02T14:07:48.246Z,6.80
2018-12-02T14:10:16.946Z,6.57
2018-12-02T14:12:47.161Z,6.33
2018-12-02T14:15:29.490Z,6.83
2018-12-02T14:17:59.586Z,6.60
2018-12-02T14:20:28.045Z,7.43
2018-12-02T14:22:56.508Z,6.53
2018-12-02T14:25:24.988Z,6.60
2018-12-02T14:27:53.605Z,6.13
2018-12-02T14:30:22.291Z,6.03
2018-12-02T14:32:50.716Z,6.17
2018-12-02T14:35:19.412Z,5.03
2018-12-02T14:37:48.184Z,6.77
2018-12-02T14:40:16.997Z,5.30
2018-12-02T14:42:46.401Z,5.93
2018-12-02T14:45:16.282Z,6.90
2018-12-02T14:47:45.089Z,5.37
2018-12-02T14:50:15.096Z,5.23
2018-12-02T14:52:44.457Z,4.77
2018-12-02T14:55:14.629Z,5.60
2018-12-02T14:57:43.171Z,5.23
2018-12-02T15:00:13.213Z,4.57
2018-12-02T15:02:42.004Z,4.63
2018-12-02T15:05:10.966Z,5.27
2018-12-02T15:07:39.434Z,5.50
2018-12-02T15:10:10.716Z,6.60
2018-12-02T15:12:39.341Z,9.60
2018-12-02T15:15:09.860Z,9.67
2018-12-02T15:17:38.420Z,9.00
2018-12-02T15:20:10.692Z,7.90
2018-12-02T15:22:39.353Z,10.80
2018-12-02T15:25:09.733Z,8.93
2018-12-02T15:27:38.325Z,7.97
2018-12-02T15:30:10.557Z,7.93
2018-12-02T15:32:39.554Z,7.87
2018-12-02T15:35:08.625Z,7.70
2018-12-02T15:37:37.332Z,8.17
2018-12-02T15:40:15.369Z,8.53
2018-12-02T15:42:46.466Z,8.47
2018-12-02T15:45:15.274Z,9.60
2018-12-02T15:47:43.722Z,8.53
2018-12-02T15:50:13.548Z,10.10
2018-12-02T15:52:42.268Z,8.07
2018-12-02T15:55:12.560Z,10.27
2018-12-02T15:57:41.273Z,9.77
2018-12-02T16:00:20.956Z,10.80
2018-12-02T16:02:49.779Z,11.00
2018-12-02T16:05:18.352Z,11.40
2018-12-02T16:07:47.066Z,12.83
2018-12-02T16:10:15.871Z,11.60
2018-12-02T16:12:45.029Z,12.87
2018-12-02T16:15:14.863Z,15.73
2018-12-02T16:17:43.665Z,18.97
2018-12-02T16:20:18.284Z,17.30
2018-12-02T16:22:52.110Z,17.73
2018-12-02T16:25:20.661Z,19.30
2018-12-02T16:27:49.405Z,21.63
2018-12-02T16:30:18.456Z,20.17
2018-12-02T16:32:54.654Z,23.57
2018-12-02T16:35:24.357Z,19.10
2018-12-02T16:37:54.461Z,21.60
2018-12-02T16:40:25.860Z,24.23
2018-12-02T16:42:54.971Z,21.80
2018-12-02T16:45:23.724Z,21.23
2018-12-02T16:47:52.967Z,22.43
2018-12-02T16:50:33.884Z,27.20
2018-12-02T16:53:03.254Z,24.40
2018-12-02T16:55:33.626Z,27.77
2018-12-02T16:58:07.361Z,21.60
2018-12-02T17:00:43.463Z,21.63
2018-12-02T17:03:12.027Z,21.73
2018-12-02T17:05:40.500Z,21.70
2018-12-02T17:08:08.969Z,23.13
2018-12-02T17:10:37.437Z,23.13
2018-12-02T17:13:06.409Z,22.53
2018-12-02T17:15:35.305Z,22.50
2018-12-02T17:18:04.129Z,21.43
2018-12-02T17:20:32.922Z,23.53
2018-12-02T17:23:01.711Z,22.17
2018-12-02T17:25:30.301Z,22.63
2018-12-02T17:27:59.013Z,20.40
2018-12-02T17:30:31.786Z,18.17
2018-12-02T17:33:00.236Z,16.93
2018-12-02T17:35:28.704Z,15.87
2018-12-02T17:37:57.205Z,14.97
2018-12-02T17:40:25.928Z,14.87
2018-12-02T17:42:54.466Z,15.37
2018-12-02T17:45:23.181Z,13.50
2018-12-02T17:47:51.981Z,10.87
2018-12-02T17:50:20.538Z,10.23
2018-12-02T17:52:49.762Z,9.43
2018-12-02T17:55:18.312Z,10.03
2018-12-02T17:57:46.775Z,8.80
2018-12-02T18:00:21.728Z,9.80
2018-12-02T18:02:50.413Z,16.30
2018-12-02T18:05:23.629Z,14.83
2018-12-02T18:07:52.287Z,11.37
2018-12-02T18:10:20.842Z,12.57
2018-12-02T18:12:49.980Z,14.17
2018-12-02T18:15:18.509Z,13.03
2018-12-02T18:17:46.999Z,14.07
2018-12-02T18:20:16.836Z,14.03
2018-12-02T18:22:45.884Z,12.83
2018-12-02T18:25:14.951Z,13.23
2018-12-02T18:27:43.672Z,16.83
2018-12-02T18:30:19.230Z,13.80
2018-12-02T18:32:49.582Z,12.87
2018-12-02T18:35:28.659Z,14.87
2018-12-02T18:38:00.448Z,13.17
2018-12-02T18:40:29.354Z,16.43
2018-12-02T18:42:58.157Z,15.13
2018-12-02T18:45:26.758Z,16.17
2018-12-02T18:47:55.472Z,18.07
2018-12-02T18:50:24.140Z,15.53
2018-12-02T18:52:52.666Z,15.33
2018-12-02T18:55:21.109Z,13.97
2018-12-02T18:57:49.854Z,14.87
2018-12-02T19:00:23.860Z,15.80
2018-12-02T19:02:53.024Z,15.27
2018-12-02T19:05:21.781Z,13.63
2018-12-02T19:07:50.338Z,15.77
2018-12-02T19:10:20.706Z,14.23
2018-12-02T19:12:49.892Z,13.10
2018-12-02T19:15:18.453Z,13.87
2018-12-02T19:17:47.277Z,15.30
2018-12-02T19:20:17.409Z,15.27
2018-12-02T19:22:47.294Z,14.70
2018-12-02T19:25:17.748Z,12.60
2018-12-02T19:27:46.303Z,13.97
2018-12-02T19:30:15.300Z,12.67
2018-12-02T19:32:44.427Z,15.33
2018-12-02T19:35:17.665Z,18.60
2018-12-02T19:37:46.982Z,15.63
2018-12-02T19:40:16.547Z,14.90
2018-12-02T19:42:45.360Z,12.93
2018-12-02T19:45:15.428Z,20.67
2018-12-02T19:47:44.135Z,17.70
2018-12-02T19:50:13.308Z,16.33
2018-12-02T19:52:42.030Z,15.47
2018-12-02T19:55:11.283Z,19.93
2018-12-02T19:57:40.597Z,19.57
2018-12-02T20:00:22.479Z,20.47
2018-12-02T20:02:51.370Z,19.57
2018-12-02T20:05:20.276Z,19.70
2018-12-02T20:07:53.793Z,19.90
2018-12-02T20:10:23.046Z,17.90
2018-12-02T20:12:57.293Z,21.90
2018-12-02T20:15:26.222Z,19.83
2018-12-02T20:17:54.999Z,20.77
2018-12-02T20:20:29.565Z,23.53
2018-12-02T20:22:58.429Z,21.37
2018-12-02T20:25:27.385Z,23.07
2018-12-02T20:27:57.204Z,22.57
2018-12-02T20:30:25.910Z,22.60
2018-12-02T20:32:54.530Z,26.43
2018-12-02T20:35:23.558Z,20.90
2018-12-02T20:37:52.919Z,26.70
2018-12-02T20:40:22.990Z,22.27
2018-12-02T20:42:51.943Z,23.63
2018-12-02T20:45:20.466Z,22.80
2018-12-02T20:47:49.321Z,23.07
2018-12-02T20:50:19.046Z,26.03
2018-12-02T20:52:48.144Z,20.87
2018-12-02T20:55:17.379Z,23.13
2018-12-02T20:57:46.424Z,24.93
2018-12-02T21:00:16.458Z,22.73
2018-12-02T21:02:49.307Z,21.80
2018-12-02T21:05:19.148Z,30.30
2018-12-02T21:07:48.010Z,27.43
2018-12-02T21:10:16.662Z,28.60
2018-12-02T21:12:45.430Z,22.67
2018-12-02T21:15:14.084Z,20.87
2018-12-02T21:17:42.746Z,23.70
2018-12-02T21:20:12.511Z,22.93
2018-12-02T21:22:41.318Z,27.40
2018-12-02T21:25:10.631Z,25.80
2018-12-02T21:27:39.404Z,29.57
2018-12-02T21:30:26.345Z,25.00
2018-12-02T21:32:54.965Z,30.63
2018-12-02T21:35:23.424Z,28.23
2018-12-02T21:37:53.646Z,29.67
2018-12-02T21:40:22.255Z,29.97
2018-12-02T21:42:50.786Z,30.03
2018-12-02T21:45:19.346Z,28.97
2018-12-02T21:47:48.408Z,28.10
2018-12-02T21:50:17.560Z,31.03
2018-12-02T21:52:46.110Z,30.77
2018-12-02T21:55:14.662Z,31.93
2018-12-02T21:57:43.236Z,24.87
2018-12-02T22:00:18.635Z,24.20
2018-12-02T22:02:47.254Z,23.40
2018-12-02T22:05:15.825Z,24.70
2018-12-02T22:07:44.594Z,21.00
2018-12-02T22:10:13.771Z,20.87
2018-12-02T22:12:42.246Z,19.80
2018-12-02T22:15:10.788Z,24.00
2018-12-02T22:17:53.833Z,22.43
2018-12-02T22:20:22.385Z,22.03
2018-12-02T22:22:50.839Z,26.33
2018-12-02T22:25:19.779Z,23.13
2018-12-02T22:27:48.884Z,23.50
2018-12-02T22:30:18.058Z,23.03
2018-12-02T22:32:46.531Z,25.57
2018-12-02T22:35:15.401Z,25.97
2018-12-02T22:37:44.276Z,22.20
2018-12-02T22:40:17.172Z,23.17
2018-12-02T22:42:46.156Z,20.03
2018-12-02T22:45:17.313Z,30.47
2018-12-02T22:47:45.999Z,24.53
2018-12-02T22:50:15.020Z,27.73
2018-12-02T22:52:44.590Z,24.43
2018-12-02T22:55:13.349Z,24.80
2018-12-02T22:57:41.852Z,26.13
2018-12-02T23:00:30.758Z,25.77
2018-12-02T23:03:09.734Z,27.33
2018-12-02T23:05:38.579Z,28.03
2018-12-02T23:08:07.467Z,25.03
2018-12-02T23:10:36.072Z,31.50
2018-12-02T23:13:05.124Z,24.50
2018-12-02T23:15:33.681Z,26.17
2018-12-02T23:18:02.180Z,24.10
2018-12-02T23:20:30.781Z,26.47
2018-12-02T23:22:59.797Z,27.13
2018-12-02T23:25:28.482Z,32.57
2018-12-02T23:27:57.556Z,36.30
2018-12-02T23:30:26.554Z,28.43
2018-12-02T23:32:55.315Z,27.27
2018-12-02T23:35:23.880Z,30.10
2018-12-02T23:37:52.460Z,28.97
2018-12-02T23:40:21.903Z,28.30
2018-12-02T23:42:50.542Z,28.83
2018-12-02T23:45:19.357Z,27.20
2018-12-02T23:47:48.100Z,32.63
2018-12-02T23:50:20.254Z,34.33
2018-12-02T23:52:48.771Z,36.80
2018-12-02T23:55:18.338Z,37.27
2018-12-02T23:57:46.919Z,34.87
